Time;durP1;ratioP1;P1;durP2;ratioP2;P2;SDS_P1;SDS_P2;PMS_P1;PMS_P2;Temp;Humidity;BMP_temperature;BMP_pressure;BME280_temperature;BME280_humidity;BME280_pressure;Samples;Min_cycle;Max_cycle;Signal;HPM_P1;HPM_P2
2021/12/06 00:00:18;;;;;;;41.20;27.27;;;5.50;99.90;;;;;;5112149;28;20223;-65
2021/12/06 00:02:46;;;;;;;38.30;29.65;;;5.40;99.90;;;;;;5111249;27;20226;-64
2021/12/06 00:05:14;;;;;;;39.25;26.85;;;5.50;99.90;;;;;;5112125;28;20234;-65
2021/12/06 00:07:41;;;;;;;41.53;28.55;;;5.50;99.90;;;;;;5100386;28;20227;-65
2021/12/06 00:10:10;;;;;;;41.83;26.65;;;5.50;99.90;;;;;;5108544;27;20227;-65
2021/12/06 00:12:37;;;;;;;37.83;25.50;;;5.50;99.90;;;;;;5109573;28;20219;-65
2021/12/06 00:15:07;;;;;;;42.05;28.58;;;5.50;99.90;;;;;;5103767;27;20222;-65
2021/12/06 00:17:34;;;;;;;42.15;28.55;;;5.50;99.90;;;;;;5107230;27;20537;-66
2021/12/06 00:20:01;;;;;;;40.70;26.00;;;5.50;99.90;;;;;;5116124;27;20237;-66
2021/12/06 00:22:28;;;;;;;36.08;25.65;;;5.50;99.90;;;;;;5101977;27;20230;-66
2021/12/06 00:24:57;;;;;;;33.47;24.92;;;5.50;99.90;;;;;;5112052;27;20214;-64
2021/12/06 00:27:25;;;;;;;40.78;27.48;;;5.50;99.90;;;;;;5115543;27;20230;-64
2021/12/06 00:29:52;;;;;;;37.35;28.15;;;5.50;99.90;;;;;;5106030;28;20223;-64
2021/12/06 00:32:21;;;;;;;36.70;25.75;;;5.50;99.90;;;;;;5112249;27;20571;-64
2021/12/06 00:34:48;;;;;;;39.30;27.70;;;5.40;99.90;;;;;;5109564;27;20215;-64
2021/12/06 00:37:20;;;;;;;37.67;27.35;;;5.40;99.90;;;;;;5108909;28;20216;-65
2021/12/06 00:39:49;;;;;;;36.58;24.70;;;5.40;99.90;;;;;;5107515;28;20233;-65
2021/12/06 00:42:18;;;;;;;34.70;25.33;;;5.30;99.90;;;;;;5101967;27;20812;-64
2021/12/06 00:44:45;;;;;;;38.92;27.30;;;5.40;99.90;;;;;;5102893;28;20238;-64
2021/12/06 00:47:12;;;;;;;35.88;25.48;;;5.30;99.90;;;;;;5108536;28;20230;-65
2021/12/06 00:49:40;;;;;;;35.53;25.35;;;5.30;99.90;;;;;;5108805;28;20230;-65
2021/12/06 00:52:08;;;;;;;34.63;23.42;;;5.30;99.90;;;;;;5101777;28;20229;-65
2021/12/06 00:54:35;;;;;;;37.10;26.60;;;5.30;99.90;;;;;;5115282;27;20564;-65
2021/12/06 00:57:04;;;;;;;35.88;24.67;;;5.20;99.90;;;;;;5115590;27;20242;-65
2021/12/06 00:59:31;;;;;;;36.67;27.67;;;5.30;99.90;;;;;;5114801;27;20248;-65
2021/12/06 01:02:00;;;;;;;31.17;23.67;;;5.30;99.90;;;;;;5115231;28;20218;-65
2021/12/06 01:04:27;;;;;;;36.63;24.83;;;5.30;99.90;;;;;;5105684;28;20246;-65
2021/12/06 01:06:56;;;;;;;36.90;25.05;;;5.30;99.90;;;;;;5108463;27;20691;-65
2021/12/06 01:09:23;;;;;;;34.90;23.63;;;5.30;99.90;;;;;;5106459;27;20222;-65
2021/12/06 01:11:50;;;;;;;36.90;23.58;;;5.40;99.90;;;;;;5112764;28;20234;-65
2021/12/06 01:14:17;;;;;;;32.80;24.38;;;5.30;99.90;;;;;;5114482;27;20226;-65
2021/12/06 01:16:44;;;;;;;30.58;22.85;;;5.30;99.90;;;;;;5111825;28;20242;-65
2021/12/06 01:19:11;;;;;;;30.48;23.70;;;5.30;99.90;;;;;;5104319;28;20229;-65
2021/12/06 01:21:46;;;;;;;31.35;23.88;;;5.30;99.90;;;;;;5111065;27;20223;-65
2021/12/06 01:24:17;;;;;;;28.92;22.38;;;5.30;99.90;;;;;;5101880;27;20226;-65
2021/12/06 01:29:49;;;;;;;30.80;23.23;;;5.20;99.90;;;;;;5109158;28;20229;-65
2021/12/06 01:32:26;;;;;;;29.58;22.95;;;5.20;99.90;;;;;;5107931;27;20230;-65
2021/12/06 01:40:34;;;;;;;30.05;21.38;;;5.10;99.90;;;;;;5093338;28;20234;-65
2021/12/06 01:43:04;;;;;;;29.98;21.08;;;5.00;99.90;;;;;;5101719;27;20226;-65
2021/12/06 01:45:32;;;;;;;31.58;22.65;;;5.10;99.90;;;;;;5114118;27;20215;-65
2021/12/06 01:47:59;;;;;;;28.88;21.35;;;5.10;99.90;;;;;;5106432;28;20227;-65
2021/12/06 01:50:28;;;;;;;29.08;21.02;;;5.10;99.90;;;;;;5107753;28;20223;-65
2021/12/06 01:53:02;;;;;;;25.60;21.23;;;5.10;99.90;;;;;;5102610;28;20685;-65
2021/12/06 01:55:32;;;;;;;25.05;21.58;;;5.10;99.90;;;;;;5112780;27;20214;-65
2021/12/06 01:58:02;;;;;;;24.77;20.02;;;5.10;99.90;;;;;;5114008;27;21319;-65
2021/12/06 02:00:33;;;;;;;25.38;20.15;;;5.10;99.90;;;;;;5114045;28;20241;-66
2021/12/06 02:03:00;;;;;;;27.95;20.45;;;5.20;99.90;;;;;;5103758;28;20215;-65
2021/12/06 02:05:27;;;;;;;30.50;19.98;;;5.20;99.90;;;;;;5107266;27;20242;-65
2021/12/06 02:07:55;;;;;;;23.00;19.27;;;5.10;99.90;;;;;;5110308;28;20305;-65
2021/12/06 02:10:23;;;;;;;22.27;18.90;;;5.10;99.90;;;;;;5109498;27;20223;-64
2021/12/06 02:12:52;;;;;;;22.65;20.08;;;5.10;99.90;;;;;;5105072;27;20246;-65
2021/12/06 02:15:34;;;;;;;23.63;20.75;;;5.10;99.90;;;;;;5109516;27;20225;-65
2021/12/06 02:18:07;;;;;;;28.02;20.98;;;5.00;99.90;;;;;;5111162;27;20694;-65
2021/12/06 02:20:42;;;;;;;26.52;21.27;;;5.00;99.90;;;;;;5113766;28;20238;-65
2021/12/06 02:23:10;;;;;;;28.08;20.88;;;5.00;99.90;;;;;;5113584;28;20615;-65
2021/12/06 02:25:37;;;;;;;27.50;20.35;;;5.00;99.90;;;;;;5109260;27;20218;-65
2021/12/06 02:28:05;;;;;;;29.50;22.08;;;5.10;99.90;;;;;;5113298;27;20335;-65
2021/12/06 02:30:32;;;;;;;28.52;22.83;;;5.00;99.90;;;;;;5102080;28;20219;-65
2021/12/06 02:33:00;;;;;;;25.00;21.70;;;5.00;99.90;;;;;;5112623;27;20238;-65
2021/12/06 02:35:27;;;;;;;30.83;23.17;;;5.00;99.90;;;;;;5112601;28;20225;-65
2021/12/06 02:37:55;;;;;;;29.95;22.85;;;5.10;99.90;;;;;;5099461;27;20554;-65
2021/12/06 02:40:26;;;;;;;27.40;22.15;;;5.10;99.90;;;;;;5101682;28;20700;-65
2021/12/06 02:42:53;;;;;;;34.20;23.83;;;5.10;99.90;;;;;;5106079;28;20223;-65
2021/12/06 02:45:24;;;;;;;30.40;22.80;;;5.10;99.90;;;;;;5106328;28;20271;-65
2021/12/06 02:47:53;;;;;;;30.85;23.17;;;5.10;99.90;;;;;;5099541;28;20310;-65
2021/12/06 02:50:22;;;;;;;32.67;24.15;;;5.10;99.90;;;;;;5112539;27;20467;-65
2021/12/06 02:52:49;;;;;;;31.65;24.52;;;5.10;99.90;;;;;;5100605;27;20215;-65
2021/12/06 02:55:30;;;;;;;31.52;24.30;;;5.10;99.90;;;;;;5111757;27;20233;-65
2021/12/06 02:58:02;;;;;;;34.05;26.08;;;5.10;99.90;;;;;;5100905;27;20644;-65
2021/12/06 03:00:29;;;;;;;35.72;26.42;;;5.10;99.90;;;;;;5112957;28;20626;-65
2021/12/06 03:02:56;;;;;;;33.05;25.67;;;5.10;99.90;;;;;;5103257;28;20227;-65
2021/12/06 03:05:26;;;;;;;36.45;26.73;;;5.10;99.90;;;;;;5106341;28;20588;-65
2021/12/06 03:07:58;;;;;;;33.70;25.58;;;5.10;99.90;;;;;;5092467;28;20624;-65
2021/12/06 03:10:25;;;;;;;35.42;26.80;;;5.10;99.90;;;;;;5111173;27;20309;-65
2021/12/06 03:12:52;;;;;;;34.53;25.38;;;5.00;99.90;;;;;;5100853;28;20223;-65
2021/12/06 03:15:21;;;;;;;33.85;26.50;;;5.00;99.90;;;;;;5106009;28;20227;-65
2021/12/06 03:17:48;;;;;;;39.67;27.40;;;5.00;99.90;;;;;;5102906;27;20229;-65
2021/12/06 03:20:16;;;;;;;36.10;28.42;;;5.00;99.90;;;;;;5112464;28;20226;-65
2021/12/06 03:22:45;;;;;;;36.10;28.02;;;5.00;99.90;;;;;;5099920;28;20223;-65
2021/12/06 03:25:15;;;;;;;38.63;29.00;;;5.00;99.90;;;;;;5107929;27;20233;-65
2021/12/06 03:27:42;;;;;;;40.22;27.73;;;5.00;99.90;;;;;;5112818;27;20238;-65
2021/12/06 03:30:12;;;;;;;38.67;27.13;;;4.90;99.90;;;;;;5104458;28;20285;-65
2021/12/06 03:32:41;;;;;;;34.85;25.95;;;4.90;99.90;;;;;;5109508;27;20230;-65
2021/12/06 03:35:09;;;;;;;38.60;27.48;;;4.90;99.90;;;;;;5112027;28;20229;-65
2021/12/06 03:37:36;;;;;;;38.33;25.90;;;4.90;99.90;;;;;;5098736;28;20817;-65
2021/12/06 03:40:05;;;;;;;36.88;26.67;;;4.90;99.90;;;;;;5102937;28;20231;-65
2021/12/06 03:42:32;;;;;;;36.20;28.40;;;4.90;99.90;;;;;;5109474;28;20234;-65
2021/12/06 03:44:59;;;;;;;42.38;29.17;;;4.90;99.90;;;;;;5105725;28;20233;-65
2021/12/06 03:47:29;;;;;;;39.28;27.13;;;4.90;99.90;;;;;;5103044;28;20242;-65
2021/12/06 03:49:58;;;;;;;38.53;27.48;;;4.80;99.90;;;;;;5105740;27;20227;-65
2021/12/06 03:52:26;;;;;;;41.03;28.50;;;4.80;99.90;;;;;;5109818;28;20219;-65
2021/12/06 03:54:53;;;;;;;41.88;28.33;;;4.80;99.90;;;;;;5107088;27;20233;-65
2021/12/06 03:57:21;;;;;;;39.00;29.35;;;4.70;99.90;;;;;;5116514;28;20560;-65
2021/12/06 03:59:49;;;;;;;33.88;27.08;;;4.80;99.90;;;;;;5116441;27;20227;-65
2021/12/06 04:02:16;;;;;;;35.47;28.45;;;4.80;99.90;;;;;;5110984;28;21004;-65
2021/12/06 04:04:43;;;;;;;36.33;26.95;;;4.80;99.90;;;;;;5108509;28;20222;-65
2021/12/06 04:07:12;;;;;;;37.17;28.50;;;4.80;99.90;;;;;;5102104;28;20233;-65
2021/12/06 04:09:39;;;;;;;42.83;30.73;;;4.80;99.90;;;;;;5102932;28;20231;-65
2021/12/06 04:12:08;;;;;;;35.38;26.25;;;4.90;99.90;;;;;;5109197;28;20235;-65
2021/12/06 04:14:36;;;;;;;39.92;29.30;;;4.90;99.90;;;;;;5109630;28;20571;-66
2021/12/06 04:17:03;;;;;;;38.10;29.85;;;4.90;99.90;;;;;;5101254;27;20226;-65
2021/12/06 04:19:30;;;;;;;39.00;28.65;;;4.90;99.90;;;;;;5116118;27;20237;-65
2021/12/06 04:21:57;;;;;;;38.50;28.35;;;4.90;99.90;;;;;;5107644;27;20228;-65
2021/12/06 04:24:26;;;;;;;37.75;28.67;;;4.90;99.90;;;;;;5106431;28;20488;-65
2021/12/06 04:26:53;;;;;;;39.70;29.05;;;4.90;99.90;;;;;;5115658;27;20233;-65
2021/12/06 04:29:20;;;;;;;34.17;27.25;;;4.90;99.90;;;;;;5113959;28;20226;-65
2021/12/06 04:31:53;;;;;;;42.70;30.17;;;4.80;99.90;;;;;;5105442;28;20230;-65
2021/12/06 04:34:21;;;;;;;39.08;27.38;;;4.90;99.90;;;;;;5115072;28;20318;-65
2021/12/06 04:36:49;;;;;;;34.90;28.38;;;4.90;99.90;;;;;;5116001;27;20218;-65
2021/12/06 04:39:19;;;;;;;36.00;28.38;;;4.80;99.90;;;;;;5111531;28;20231;-65
2021/12/06 04:41:48;;;;;;;38.08;29.27;;;4.80;99.90;;;;;;5106674;27;20235;-65
2021/12/06 04:44:15;;;;;;;37.10;28.58;;;4.80;99.90;;;;;;5101548;27;20234;-65
2021/12/06 04:46:43;;;;;;;40.17;28.23;;;4.80;99.90;;;;;;5103760;27;20219;-65
2021/12/06 04:49:11;;;;;;;40.80;29.95;;;4.70;99.90;;;;;;5108275;28;20315;-65
2021/12/06 04:51:41;;;;;;;39.00;27.65;;;4.70;99.90;;;;;;5107974;28;20272;-65
2021/12/06 04:54:10;;;;;;;30.55;23.90;;;4.70;99.90;;;;;;5100654;27;20699;-65
2021/12/06 04:56:40;;;;;;;37.95;27.48;;;4.70;99.90;;;;;;5115623;27;20222;-65
2021/12/06 04:59:12;;;;;;;34.17;25.35;;;4.80;99.90;;;;;;5114471;27;20219;-65
2021/12/06 05:01:40;;;;;;;36.22;28.05;;;4.70;99.90;;;;;;5115287;28;20222;-65
2021/12/06 05:04:11;;;;;;;42.33;29.27;;;4.70;99.90;;;;;;5101986;28;20714;-65
2021/12/06 05:06:40;;;;;;;32.95;26.23;;;4.70;99.90;;;;;;5101670;28;20708;-65
2021/12/06 05:09:12;;;;;;;36.38;25.50;;;4.70;99.90;;;;;;5105770;28;20227;-66
2021/12/06 05:11:39;;;;;;;39.60;26.77;;;4.70;99.90;;;;;;5108657;28;20222;-65
2021/12/06 05:14:08;;;;;;;38.80;27.98;;;4.70;99.90;;;;;;5104153;28;20561;-65
2021/12/06 05:16:36;;;;;;;37.17;25.65;;;4.70;99.90;;;;;;5101326;28;20699;-65
2021/12/06 05:19:04;;;;;;;34.53;26.50;;;4.80;99.90;;;;;;5113462;27;20267;-66
2021/12/06 05:21:32;;;;;;;36.25;26.38;;;4.80;99.90;;;;;;5110319;28;20234;-66
2021/12/06 05:23:59;;;;;;;39.90;27.92;;;4.80;99.90;;;;;;5101933;27;20223;-66
2021/12/06 05:26:26;;;;;;;33.85;26.90;;;4.80;99.90;;;;;;5114697;27;20230;-66
2021/12/06 05:28:58;;;;;;;35.28;27.23;;;4.80;99.90;;;;;;5115117;27;20226;-66
2021/12/06 05:31:26;;;;;;;27.48;23.27;;;4.80;99.90;;;;;;5101437;28;20978;-66
2021/12/06 05:33:59;;;;;;;35.08;26.27;;;4.80;99.90;;;;;;5114921;28;20219;-66
2021/12/06 05:36:26;;;;;;;32.88;25.60;;;4.90;99.90;;;;;;5114540;28;20431;-66
2021/12/06 05:38:54;;;;;;;35.13;26.33;;;4.90;99.90;;;;;;5100961;28;20223;-66
2021/12/06 05:41:22;;;;;;;33.10;23.60;;;4.90;99.90;;;;;;5106569;28;20677;-66
2021/12/06 05:43:49;;;;;;;36.00;25.27;;;5.00;99.90;;;;;;5107741;28;20233;-66
2021/12/06 05:46:16;;;;;;;33.88;24.50;;;5.00;99.90;;;;;;5102240;28;20275;-66
2021/12/06 05:48:46;;;;;;;37.95;26.15;;;5.00;99.90;;;;;;5100853;28;20215;-66
2021/12/06 05:51:13;;;;;;;34.58;24.55;;;5.00;99.90;;;;;;5104472;28;20234;-65
2021/12/06 05:53:40;;;;;;;33.35;24.95;;;5.00;99.90;;;;;;5108337;28;20220;-65
2021/12/06 05:56:07;;;;;;;31.58;26.13;;;5.00;99.90;;;;;;5101763;28;20233;-65
2021/12/06 05:58:35;;;;;;;38.80;27.05;;;5.00;99.90;;;;;;5103467;28;20230;-65
2021/12/06 06:01:03;;;;;;;33.28;25.58;;;5.10;99.90;;;;;;5114158;28;20234;-64
2021/12/06 06:03:30;;;;;;;36.53;26.10;;;5.00;99.90;;;;;;5100044;28;20246;-64
2021/12/06 06:05:58;;;;;;;32.05;24.30;;;5.10;99.90;;;;;;5105340;28;20231;-64
2021/12/06 06:08:26;;;;;;;42.25;30.35;;;5.10;99.90;;;;;;5106862;28;20233;-64
2021/12/06 06:10:53;;;;;;;37.25;27.23;;;5.10;99.90;;;;;;5103233;28;20246;-65
2021/12/06 06:13:20;;;;;;;35.40;26.20;;;5.00;99.90;;;;;;5099679;28;20328;-65
2021/12/06 06:15:50;;;;;;;37.10;26.15;;;5.00;99.90;;;;;;5103918;28;20292;-66
2021/12/06 06:18:17;;;;;;;33.65;25.35;;;5.00;99.90;;;;;;5097920;28;20309;-66
2021/12/06 06:20:47;;;;;;;35.88;28.40;;;5.00;99.90;;;;;;5113636;27;20242;-65
2021/12/06 06:23:15;;;;;;;35.17;24.90;;;5.00;99.90;;;;;;5099603;28;20238;-66
2021/12/06 06:25:43;;;;;;;38.15;26.33;;;5.00;99.90;;;;;;5105272;27;20218;-65
2021/12/06 06:28:10;;;;;;;35.13;27.20;;;5.00;99.90;;;;;;5113074;28;20312;-65
2021/12/06 06:30:39;;;;;;;36.00;25.15;;;5.00;99.90;;;;;;5104922;28;20219;-65
2021/12/06 06:33:06;;;;;;;32.90;26.02;;;5.00;99.90;;;;;;5113505;27;20237;-65
2021/12/06 06:35:33;;;;;;;36.08;28.02;;;5.10;99.90;;;;;;5113202;27;20582;-65
2021/12/06 06:38:02;;;;;;;36.47;26.98;;;5.00;99.90;;;;;;5111208;28;20228;-66
2021/12/06 06:40:30;;;;;;;32.75;26.63;;;5.00;99.90;;;;;;5102086;28;20242;-65
2021/12/06 06:42:58;;;;;;;33.85;24.25;;;5.00;99.90;;;;;;5099549;28;20243;-65
2021/12/06 06:45:25;;;;;;;36.45;27.77;;;5.00;99.90;;;;;;5103295;28;20242;-66
2021/12/06 06:47:52;;;;;;;36.88;26.30;;;5.10;99.90;;;;;;5106749;28;20235;-65
2021/12/06 06:50:20;;;;;;;42.80;29.25;;;5.10;99.90;;;;;;5102409;28;20238;-65
2021/12/06 06:52:47;;;;;;;38.00;27.60;;;5.00;99.90;;;;;;5099448;28;20229;-65
2021/12/06 06:55:15;;;;;;;32.30;25.73;;;5.00;99.90;;;;;;5102695;28;20220;-65
2021/12/06 06:57:45;;;;;;;41.75;29.05;;;5.10;99.90;;;;;;5110370;27;20291;-65
2021/12/06 07:00:15;;;;;;;40.13;28.27;;;5.00;99.90;;;;;;5112530;28;20230;-65
2021/12/06 07:02:42;;;;;;;33.50;26.65;;;5.10;99.90;;;;;;5099802;28;20233;-65
2021/12/06 07:05:12;;;;;;;37.45;26.75;;;5.10;99.90;;;;;;5100848;28;20227;-64
2021/12/06 07:07:39;;;;;;;33.85;26.05;;;5.10;99.90;;;;;;5106114;28;20215;-64
2021/12/06 07:10:08;;;;;;;38.35;27.85;;;5.10;99.90;;;;;;5065205;28;20281;-64
2021/12/06 07:12:41;;;;;;;38.80;28.00;;;5.10;99.90;;;;;;5058461;28;20231;-63
2021/12/06 07:15:11;;;;;;;34.85;25.15;;;5.10;99.90;;;;;;5071503;28;20307;-64
2021/12/06 07:17:39;;;;;;;39.30;27.50;;;5.10;99.90;;;;;;5069097;28;20251;-64
2021/12/06 07:20:07;;;;;;;32.55;24.77;;;5.10;99.90;;;;;;5068816;28;20958;-65
2021/12/06 07:22:34;;;;;;;35.33;25.65;;;5.10;99.90;;;;;;5058517;28;20229;-65
2021/12/06 07:25:01;;;;;;;31.95;23.42;;;5.10;99.90;;;;;;5060250;28;20299;-65
2021/12/06 07:27:28;;;;;;;31.05;24.45;;;5.10;99.90;;;;;;5070304;28;20819;-65
2021/12/06 07:29:55;;;;;;;33.15;22.70;;;5.10;99.90;;;;;;5066183;28;20244;-65
2021/12/06 07:32:23;;;;;;;35.10;25.75;;;5.20;99.90;;;;;;5065840;28;20527;-65
2021/12/06 07:34:51;;;;;;;33.85;25.65;;;5.20;99.90;;;;;;5068969;28;20952;-65
2021/12/06 07:37:18;;;;;;;38.92;25.48;;;5.20;99.90;;;;;;5061646;28;20705;-65
2021/12/06 07:39:45;;;;;;;37.17;25.73;;;5.20;99.90;;;;;;5068602;28;20575;-65
2021/12/06 07:42:12;;;;;;;32.55;24.63;;;5.20;99.90;;;;;;5062535;28;20228;-65
2021/12/06 07:44:40;;;;;;;35.95;26.02;;;5.20;99.90;;;;;;5058123;28;20612;-65
2021/12/06 07:47:07;;;;;;;33.72;25.00;;;5.20;99.90;;;;;;5061788;28;20303;-65
2021/12/06 07:49:37;;;;;;;30.30;23.00;;;5.20;99.90;;;;;;5064834;28;20225;-65
2021/12/06 07:52:04;;;;;;;30.73;23.65;;;5.30;99.90;;;;;;5062690;28;20232;-64
2021/12/06 07:54:31;;;;;;;31.45;24.30;;;5.20;99.90;;;;;;5058239;28;20669;-66
2021/12/06 07:56:59;;;;;;;31.95;24.02;;;5.30;99.90;;;;;;5060954;28;20635;-63
2021/12/06 07:59:26;;;;;;;29.52;23.50;;;5.30;99.90;;;;;;5070074;28;20224;-63
2021/12/06 08:01:54;;;;;;;32.15;24.15;;;5.30;99.90;;;;;;5060643;28;20236;-64
2021/12/06 08:04:21;;;;;;;31.38;24.35;;;5.30;99.90;;;;;;5065000;28;20240;-64
2021/12/06 08:06:49;;;;;;;34.92;23.70;;;5.40;99.90;;;;;;5063619;28;20225;-64
2021/12/06 08:09:17;;;;;;;29.33;20.67;;;5.40;99.90;;;;;;5095082;27;20227;-65
2021/12/06 08:11:45;;;;;;;35.20;23.90;;;5.50;99.90;;;;;;5112186;28;20219;-64
2021/12/06 08:14:12;;;;;;;33.70;24.35;;;5.50;99.90;;;;;;5098803;28;20243;-64
2021/12/06 08:16:43;;;;;;;30.25;23.30;;;5.50;99.90;;;;;;5099242;28;20247;-64
2021/12/06 08:19:11;;;;;;;29.55;23.55;;;5.50;99.90;;;;;;5111975;28;20250;-64
2021/12/06 08:21:38;;;;;;;29.23;22.10;;;5.50;99.90;;;;;;5098576;28;20535;-64
2021/12/06 08:24:08;;;;;;;33.80;24.85;;;5.50;99.90;;;;;;5104963;28;20211;-64
2021/12/06 08:26:39;;;;;;;29.77;22.88;;;5.50;99.90;;;;;;5109296;27;20219;-64
2021/12/06 08:29:12;;;;;;;29.55;22.77;;;5.50;99.90;;;;;;5114809;28;20568;-66
2021/12/06 08:31:41;;;;;;;31.48;23.50;;;5.50;99.90;;;;;;5105014;28;20225;-67
2021/12/06 08:34:08;;;;;;;29.60;23.30;;;5.50;99.90;;;;;;5115816;27;20226;-67
2021/12/06 08:36:35;;;;;;;31.55;24.02;;;5.60;99.90;;;;;;5115387;27;20230;-67
2021/12/06 08:39:03;;;;;;;27.80;22.02;;;5.60;99.90;;;;;;5113220;28;20220;-66
2021/12/06 08:41:32;;;;;;;28.65;22.45;;;5.60;99.90;;;;;;5114773;27;20230;-68
2021/12/06 08:44:01;;;;;;;27.58;21.55;;;5.70;99.90;;;;;;5108278;27;20237;-68
2021/12/06 08:46:30;;;;;;;33.53;23.40;;;5.70;99.90;;;;;;5111423;27;20246;-73
2021/12/06 08:48:58;;;;;;;28.55;22.23;;;5.70;99.90;;;;;;5111778;27;20222;-68
2021/12/06 08:51:28;;;;;;;29.23;20.92;;;5.70;99.90;;;;;;5113164;28;20593;-68
2021/12/06 08:53:57;;;;;;;31.35;21.60;;;5.70;99.90;;;;;;5099547;28;20237;-68
2021/12/06 08:56:24;;;;;;;29.55;21.38;;;5.80;99.90;;;;;;5112716;27;20418;-68
2021/12/06 08:58:52;;;;;;;30.08;19.45;;;5.80;99.90;;;;;;5113069;27;20222;-68
2021/12/06 09:01:21;;;;;;;33.45;22.42;;;5.90;99.90;;;;;;5113235;27;20238;-68
2021/12/06 09:03:49;;;;;;;28.65;22.27;;;5.90;99.90;;;;;;5113021;27;20918;-68
2021/12/06 09:06:16;;;;;;;27.83;21.75;;;5.90;99.90;;;;;;5103059;28;20223;-68
2021/12/06 09:08:44;;;;;;;27.10;21.40;;;6.00;99.90;;;;;;5113984;28;20308;-68
2021/12/06 09:11:12;;;;;;;28.65;20.40;;;6.00;99.90;;;;;;5114977;27;20230;-66
2021/12/06 09:13:40;;;;;;;27.60;21.17;;;6.10;99.90;;;;;;5112298;27;20227;-69
2021/12/06 09:16:11;;;;;;;25.30;20.13;;;6.10;99.90;;;;;;5115103;27;20237;-68
2021/12/06 09:18:41;;;;;;;27.75;19.85;;;6.20;99.90;;;;;;5104964;28;20688;-69
2021/12/06 09:21:12;;;;;;;29.08;20.63;;;6.20;99.90;;;;;;5114528;27;20230;-69
2021/12/06 09:23:39;;;;;;;24.60;19.85;;;6.20;99.90;;;;;;5114153;27;20238;-71
2021/12/06 09:26:06;;;;;;;26.33;20.77;;;6.30;99.90;;;;;;5114708;27;20276;-70
2021/12/06 09:28:35;;;;;;;26.73;20.05;;;6.30;99.90;;;;;;5114312;27;20223;-68
2021/12/06 09:31:04;;;;;;;24.75;21.05;;;6.30;99.90;;;;;;5111262;27;20237;-68
2021/12/06 09:33:33;;;;;;;26.73;19.95;;;6.40;99.90;;;;;;5111501;27;20210;-68
2021/12/06 09:36:00;;;;;;;29.25;22.60;;;6.40;99.90;;;;;;5114598;27;20618;-68
2021/12/06 09:38:34;;;;;;;30.50;21.77;;;6.40;99.90;;;;;;5113888;27;20230;-68
2021/12/06 09:41:02;;;;;;;27.52;20.45;;;6.40;99.90;;;;;;5113112;28;20229;-68
2021/12/06 09:43:29;;;;;;;28.80;21.25;;;6.40;99.90;;;;;;5114139;27;20234;-68
2021/12/06 09:45:57;;;;;;;26.40;19.20;;;6.40;99.90;;;;;;5107711;28;20223;-67
2021/12/06 09:48:24;;;;;;;26.38;20.17;;;6.50;99.90;;;;;;5107945;28;20560;-69
2021/12/06 09:50:56;;;;;;;23.90;18.05;;;6.50;99.90;;;;;;5109622;27;20226;-68
2021/12/06 09:53:27;;;;;;;23.83;18.35;;;6.50;99.90;;;;;;5108398;28;20248;-67
2021/12/06 09:55:57;;;;;;;27.75;19.75;;;6.50;99.90;;;;;;5114299;28;20206;-68
2021/12/06 09:58:25;;;;;;;25.30;19.63;;;6.50;99.90;;;;;;5108925;27;20229;-68
2021/12/06 10:00:56;;;;;;;27.00;21.10;;;6.50;99.90;;;;;;5104416;28;20227;-68
2021/12/06 10:03:26;;;;;;;23.55;20.23;;;6.50;99.90;;;;;;5107517;27;20568;-68
2021/12/06 10:06:01;;;;;;;25.95;19.67;;;6.50;99.90;;;;;;5104026;27;20222;-68
2021/12/06 10:08:28;;;;;;;26.25;19.65;;;6.50;99.90;;;;;;5113572;27;20234;-67
2021/12/06 10:10:55;;;;;;;25.90;19.63;;;6.50;99.90;;;;;;5112162;28;20234;-68
2021/12/06 10:13:22;;;;;;;26.27;20.15;;;6.50;99.90;;;;;;5106140;28;20749;-69
2021/12/06 10:15:51;;;;;;;27.83;20.33;;;6.40;99.90;;;;;;5100790;28;20219;-69
2021/12/06 10:18:19;;;;;;;23.67;18.75;;;6.40;99.90;;;;;;5105070;28;20226;-67
2021/12/06 10:20:51;;;;;;;23.05;19.35;;;6.30;99.90;;;;;;5109141;28;20222;-67
2021/12/06 10:23:20;;;;;;;26.80;20.52;;;6.30;99.90;;;;;;5107252;28;20218;-67
2021/12/06 10:25:49;;;;;;;26.55;19.13;;;6.30;99.90;;;;;;5107599;27;20223;-67
2021/12/06 10:28:18;;;;;;;22.73;19.75;;;6.30;99.90;;;;;;5104791;28;20222;-68
2021/12/06 10:30:52;;;;;;;24.65;18.25;;;6.30;99.90;;;;;;5108914;28;20223;-67
2021/12/06 10:33:22;;;;;;;23.45;18.15;;;6.30;99.90;;;;;;5103477;27;20668;-68
2021/12/06 10:35:52;;;;;;;27.70;19.80;;;6.30;99.90;;;;;;5111054;27;20599;-69
2021/12/06 10:38:24;;;;;;;23.23;17.88;;;6.30;99.90;;;;;;5109664;28;20541;-68
2021/12/06 10:40:56;;;;;;;18.95;16.52;;;6.30;99.90;;;;;;5110613;27;20652;-69
2021/12/06 10:43:23;;;;;;;27.50;18.20;;;6.30;99.90;;;;;;5112830;28;20229;-68
2021/12/06 10:45:51;;;;;;;25.63;17.73;;;6.30;99.90;;;;;;5107473;28;20227;-68
2021/12/06 10:48:20;;;;;;;22.52;17.25;;;6.30;99.90;;;;;;5110694;28;20218;-69
2021/12/06 10:50:55;;;;;;;28.98;20.52;;;6.30;99.90;;;;;;5110197;28;20636;-68
2021/12/06 10:53:27;;;;;;;25.30;17.83;;;6.30;99.90;;;;;;5111025;27;20619;-69
2021/12/06 10:55:56;;;;;;;22.42;17.60;;;6.30;99.90;;;;;;5099222;28;20348;-69
2021/12/06 10:58:26;;;;;;;26.48;18.55;;;6.30;99.90;;;;;;5106435;27;20541;-69
2021/12/06 11:00:55;;;;;;;20.52;16.00;;;6.30;99.90;;;;;;5111137;27;20223;-69
2021/12/06 11:03:31;;;;;;;24.98;18.27;;;6.30;99.90;;;;;;5097913;28;20230;-69
2021/12/06 11:06:03;;;;;;;24.70;18.48;;;6.30;99.90;;;;;;5101027;28;20645;-69
2021/12/06 11:08:34;;;;;;;22.58;17.45;;;6.30;99.90;;;;;;5111109;27;20295;-69
2021/12/06 11:11:05;;;;;;;21.50;16.20;;;6.30;99.90;;;;;;5112586;28;21272;-69
2021/12/06 11:13:35;;;;;;;20.77;15.20;;;6.40;99.90;;;;;;5106380;28;20223;-69
2021/12/06 11:16:13;;;;;;;19.17;15.27;;;6.40;99.90;;;;;;5104233;28;20226;-69
2021/12/06 11:18:43;;;;;;;22.85;16.75;;;6.40;99.90;;;;;;5107377;28;20218;-68
2021/12/06 11:21:23;;;;;;;18.88;14.93;;;6.40;99.90;;;;;;5107926;28;20325;-69
2021/12/06 11:24:07;;;;;;;21.35;13.98;;;6.40;99.90;;;;;;5101611;27;20226;-69
2021/12/06 11:26:38;;;;;;;18.45;15.38;;;6.50;99.90;;;;;;5108419;27;20592;-69
2021/12/06 11:29:08;;;;;;;19.10;15.75;;;6.50;99.90;;;;;;5110396;28;20217;-69
2021/12/06 11:31:36;;;;;;;19.80;14.02;;;6.50;99.90;;;;;;5100057;27;20556;-69
2021/12/06 11:34:05;;;;;;;18.45;13.13;;;6.60;99.90;;;;;;5110723;27;20222;-69
2021/12/06 11:36:32;;;;;;;17.48;13.38;;;6.60;99.90;;;;;;5111099;28;20226;-69
2021/12/06 11:39:04;;;;;;;16.73;14.98;;;6.60;99.90;;;;;;5097184;28;20226;-69
2021/12/06 11:41:33;;;;;;;16.70;14.98;;;6.60;99.90;;;;;;5112682;27;20223;-70
2021/12/06 11:44:12;;;;;;;16.77;13.18;;;6.70;99.90;;;;;;5112414;27;20226;-67
2021/12/06 11:46:39;;;;;;;19.75;14.25;;;6.70;99.90;;;;;;5112631;28;20222;-68
2021/12/06 11:49:16;;;;;;;19.48;13.93;;;6.70;99.90;;;;;;5112266;28;20308;-68
2021/12/06 11:51:43;;;;;;;16.73;13.38;;;6.80;99.90;;;;;;5106354;27;20226;-68
2021/12/06 11:54:10;;;;;;;16.88;13.80;;;6.80;99.90;;;;;;5112530;28;20530;-67
2021/12/06 11:56:44;;;;;;;16.63;13.60;;;6.80;99.90;;;;;;5099675;28;20212;-68
2021/12/06 11:59:13;;;;;;;19.67;15.40;;;6.80;99.90;;;;;;5112196;28;20978;-67
2021/12/06 12:01:42;;;;;;;20.33;15.20;;;6.80;99.90;;;;;;5104892;28;20255;-67
2021/12/06 12:04:13;;;;;;;18.75;13.98;;;6.80;99.90;;;;;;5109205;28;20571;-67
2021/12/06 12:06:42;;;;;;;17.27;13.75;;;6.80;99.90;;;;;;5104925;28;20234;-67
2021/12/06 12:09:14;;;;;;;16.40;13.32;;;6.80;99.60;;;;;;5114180;27;20688;-68
2021/12/06 12:12:15;;;;;;;19.25;13.57;;;6.70;99.90;;;;;;5116584;28;20218;-68
2021/12/06 12:14:44;;;;;;;13.30;10.55;;;6.80;99.90;;;;;;5073473;28;20224;-68
2021/12/06 12:17:13;;;;;;;14.85;11.45;;;6.80;99.80;;;;;;5103365;28;20238;-68
2021/12/06 12:19:40;;;;;;;17.20;12.23;;;6.80;99.70;;;;;;5115712;28;20226;-68
2021/12/06 12:22:09;;;;;;;14.07;11.90;;;6.80;99.70;;;;;;5102515;27;20234;-68
2021/12/06 12:24:38;;;;;;;15.85;12.10;;;6.80;99.80;;;;;;5114919;27;20553;-68
2021/12/06 12:27:17;;;;;;;18.75;12.85;;;6.70;99.60;;;;;;5116233;27;20673;-67
2021/12/06 12:29:47;;;;;;;14.65;11.20;;;6.70;99.60;;;;;;5112330;27;20224;-68
2021/12/06 12:32:16;;;;;;;17.50;12.88;;;6.80;99.80;;;;;;5109448;28;20557;-68
2021/12/06 12:34:46;;;;;;;14.93;11.63;;;6.80;99.60;;;;;;5115120;27;20214;-68
2021/12/06 12:37:15;;;;;;;16.38;11.65;;;6.80;99.50;;;;;;5108596;28;20243;-68
2021/12/06 12:39:42;;;;;;;17.30;12.77;;;6.80;99.40;;;;;;5108788;27;20230;-68
2021/12/06 12:42:10;;;;;;;16.45;12.73;;;6.80;99.40;;;;;;5113818;28;20230;-68
2021/12/06 12:44:44;;;;;;;13.55;11.40;;;6.80;99.40;;;;;;5099323;28;20226;-69
2021/12/06 12:47:17;;;;;;;15.60;12.80;;;6.80;99.20;;;;;;5115898;27;20687;-68
2021/12/06 12:49:47;;;;;;;18.50;12.90;;;6.80;99.20;;;;;;5114688;27;20222;-69
2021/12/06 12:52:14;;;;;;;16.27;12.40;;;6.80;99.40;;;;;;5115637;27;20219;-69